• Join FlightAware (Why Join?)
  • Login
  • US Flag 
 
03:32AM EST


 

Airport Tracker/Info


-or-


 

Live Flight TrackerFlight Track Log ✈ SKW5535 ✈ 12-Aug-2013 ✈ KDEN - KMSO

Flight Track Log - Related Links

Times and Time Zones

All times are in EDT time to prevent confusion due to time zone crossing. See the SKW5535 flight status page for this flight to view local times or setup timezone preferences in your user account.

Time Position Orientation Groundspeed Altitude Reporting Facility
EDT Latitude Longitude Course Direction KTS MPH feet Rate Location/Type
12:43PM 39.8500 -104.7833 348° North 203 234 7,600  Level Denver TRACON
12:44PM 39.9000 -104.8667 308° West 270 311 9,200 1,620 Climbing Denver TRACON
12:45PM 40.2916 -104.8091 347° North  Level FlightAware Approximate
12:45PM 39.9500 -104.9333 314° West 304 350 11,100  Level Denver TRACON
12:46PM 40.4021 -104.8451 346° North  Level FlightAware Approximate
12:46PM 40.0333 -104.9333 360° North 307 353 13,200  Level Denver TRACON
12:47PM 40.5125 -104.8820 346° North  Level FlightAware Approximate
12:48PM 40.6238 -104.9139 348° North  Level FlightAware Approximate
12:48PM 40.1669 -104.9258 North 311 358 16,000  Level Denver Center
12:49PM 40.2678 -104.9136 North 339 390 17,700 1,260 Climbing Denver Center
12:50PM 40.3606 -104.9050 North 338 389 18,900 1,320 Climbing Denver Center
12:51PM 40.4806 -104.8881 North 351 404 20,800 1,560 Climbing Denver Center
12:52PM 40.5858 -104.8778 North 353 406 22,200 1,200 Climbing Denver Center
12:53PM 40.6744 -104.9253 338° Northwest 363 418 23,300 960 Climbing Denver Center
12:54PM 40.7503 -105.0208 316° Northwest 351 404 24,300 960 Climbing Denver Center
12:55PM 40.8231 -105.1097 317° Northwest 355 409 25,300 960 Climbing Denver Center
12:56PM 40.8975 -105.2039 316° Northwest 369 425 26,300 840 Climbing Denver Center
12:57PM 40.9731 -105.2994 316° Northwest 375 432 27,100 720 Climbing Denver Center
12:58PM 41.0544 -105.4033 316° Northwest 382 440 27,900 720 Climbing Denver Center
12:59PM 41.1417 -105.5161 316° Northwest 390 449 28,700 600 Climbing Denver Center
01:00PM 41.2169 -105.6106 317° Northwest 389 448 29,200 480 Climbing Denver Center
01:01PM 41.2933 -105.7094 316° Northwest 397 457 29,800 540 Climbing Denver Center
01:02PM 41.3833 -105.8261 316° Northwest 404 465 30,400 540 Climbing Denver Center
01:03PM 41.4619 -105.9278 316° Northwest 408 470 31,000 480 Climbing Denver Center
01:04PM 41.5400 -106.0292 316° Northwest 408 470 31,500 480 Climbing Denver Center
01:05PM 41.6322 -106.1503 316° Northwest 414 476 32,000 240 Climbing Denver Center
01:07PM 41.7244 -106.2711 316° Northwest 415 478 32,000  Level Denver Center
01:08PM 41.8044 -106.3756 316° Northwest 418 481 32,000 120 Level Denver Center
01:09PM 41.8997 -106.5019 315° West 428 493 32,300 480 Climbing Denver Center
01:10PM 41.9819 -106.6094 316° Northwest 434 499 33,000 720 Climbing Denver Center
01:11PM 42.0739 -106.7317 315° West 421 484 33,800 480 Climbing Denver Center
01:12PM 42.1519 -106.8361 315° West 415 478 34,000 60 Climbing Denver Center
01:13PM 42.2433 -106.9608 315° West 419 482 34,000  Level Denver Center
01:14PM 42.3247 -107.0700 315° West 429 494 34,000  Level Denver Center
01:15PM 42.3928 -107.1617 315° West 434 499 34,000 360 Level Denver Center
01:16PM 42.4869 -107.2892 315° West 430 495 34,800 840 Climbing Denver Center
01:17PM 42.5653 -107.3972 315° West 422 486 35,500 660 Climbing Salt Lake Center
01:18PM 42.6403 -107.4994 315° West 408 470 36,000 240 Climbing Salt Lake Center
01:19PM 42.7261 -107.6186 314° West 400 460 36,000  Level Salt Lake Center
01:20PM 42.8003 -107.7219 314° West 398 458 36,000  Level Salt Lake Center
01:21PM 42.8867 -107.8408 315° West 398 458 36,000  Level Salt Lake Center
01:22PM 42.9603 -107.9436 314° West 397 457 36,000  Level Salt Lake Center
01:23PM 43.0456 -108.0631 314° West 395 455 36,000  Level Salt Lake Center
01:24PM 43.1194 -108.1681 314° West 398 458 36,000  Level Salt Lake Center
01:25PM 43.2053 -108.2875 315° West 396 456 36,000  Level Salt Lake Center
01:26PM 43.2781 -108.3917 314° West 396 456 36,000  Level Salt Lake Center
01:27PM 43.3642 -108.5131 314° West 399 459 36,000  Level Salt Lake Center
01:28PM 43.4372 -108.6178 314° West 399 459 36,000  Level Salt Lake Center
01:29PM 43.5378 -108.7183 324° Northwest 400 460 36,000  Level Salt Lake Center
01:30PM 43.6275 -108.8003 327° Northwest 404 465 36,000  Level Salt Lake Center
01:31PM 43.7328 -108.8933 327° Northwest 404 465 36,000  Level Salt Lake Center
01:32PM 43.8219 -108.9761 326° Northwest 406 467 36,000  Level Salt Lake Center
01:33PM 43.9261 -109.0703 327° Northwest 403 464 36,000  Level Salt Lake Center
01:34PM 44.0142 -109.1569 325° Northwest 405 466 36,000  Level Salt Lake Center
01:35PM 44.1019 -109.2786 315° West 402 463 36,000  Level Salt Lake Center
01:36PM 44.1717 -109.3917 311° West 402 463 36,000  Level Salt Lake Center
01:37PM 44.2433 -109.5022 312° West 402 463 36,000  Level Salt Lake Center
01:38PM 44.3261 -109.6347 311° West 405 466 36,000  Level Salt Lake Center
01:39PM 44.3981 -109.7481 312° West 407 468 36,000  Level Salt Lake Center
01:40PM 44.4806 -109.8806 311° West 405 466 36,000  Level Salt Lake Center
01:41PM 44.5511 -109.9947 311° West 406 467 36,000  Level Salt Lake Center
01:42PM 44.6325 -110.1272 311° West 403 464 36,000  Level Salt Lake Center
01:43PM 44.7036 -110.2414 311° West 404 465 36,000  Level Salt Lake Center
01:44PM 44.7847 -110.3736 311° West 402 463 36,000  Level Salt Lake Center
01:46PM 44.8542 -110.4881 311° West 402 463 36,000  Level Salt Lake Center
01:47PM 44.9350 -110.6200 311° West 400 460 36,000  Level Salt Lake Center
01:48PM 45.0039 -110.7322 311° West 398 458 36,000  Level Salt Lake Center
01:49PM 45.0822 -110.8639 310° West 395 455 36,000  Level Salt Lake Center
01:50PM 45.1508 -110.9778 311° West 398 458 36,000  Level Salt Lake Center
01:51PM 45.2214 -111.0981 310° West 396 456 36,000  Level Salt Lake Center
01:52PM 45.2936 -111.2178 311° West 396 456 36,000  Level Salt Lake Center
01:53PM 45.3792 -111.3628 310° West 397 457 36,000  Level Salt Lake Center
01:54PM 45.4494 -111.4850 309° West 396 456 36,000  Level Salt Lake Center
01:55PM 45.5217 -111.6061 310° West 397 457 36,000  Level Salt Lake Center
01:56PM 45.5939 -111.7275 310° West 398 458 36,000  Level Salt Lake Center
01:57PM 45.6647 -111.8497 310° West 397 457 36,000  Level Salt Lake Center
01:58PM 45.7364 -111.9722 310° West 398 458 36,000  Level Salt Lake Center
01:59PM 45.8067 -112.0953 309° West 398 458 36,000  Level Salt Lake Center
02:00PM 45.8922 -112.2422 310° West 399 459 36,000 -300 Level Salt Lake Center
02:01PM 45.9631 -112.3656 310° West 400 460 35,500 -1,560 Descending Salt Lake Center
02:02PM 46.0344 -112.4931 309° West 407 468 32,800 -2,580 Descending Salt Lake Center
02:03PM 46.1078 -112.6208 310° West 412 474 30,200 -2,520 Descending Salt Lake Center
02:04PM 46.1778 -112.7469 309° West 405 466 27,600 -2,520 Descending Salt Lake Center
02:05PM 46.2486 -112.8708 310° West 400 460 25,000 -2,520 Descending Salt Lake Center
02:06PM 46.3150 -112.9928 308° West 388 447 22,400 -2,760 Descending Salt Lake Center
02:07PM 46.3939 -113.1314 310° West 368 423 19,300 -2,700 Descending Salt Lake Center
02:08PM 46.4542 -113.2400 309° West 361 415 16,900 -2,100 Descending Salt Lake Center
02:09PM 46.5197 -113.3583 309° West 345 397 15,000 -960 Descending Salt Lake Center
02:10PM 46.5717 -113.4544 308° West 307 353 15,000 -780 Level Salt Lake Center
02:11PM 46.6281 -113.5569 309° West 303 349 13,500 -1,740 Descending Salt Lake Center
02:12PM 46.6792 -113.6514 308° West 299 344 11,500 -2,040 Descending Salt Lake Center
02:13PM 46.7333 -113.7506 309° West 292 336 9,400 -1,500 Descending Salt Lake Center
02:15PM 46.7825 -113.8422 308° West 286 329 8,400 -960 Descending Salt Lake Center
02:16PM 46.8164 -113.9217 302° West 219 252 7,500 -1,440 Descending Salt Lake Center
02:17PM 46.8408 -113.9961 296° West 219 252 5,500 -1,680 Descending Salt Lake Center
02:18PM 46.8828 -114.0347 328° Northwest 165 190 4,100 -1,140 Descending Salt Lake Center
02:19PM 46.9089 -114.0800 310° West 147 169 3,200 -900 Descending Salt Lake Center